Time;durP1;ratioP1;P1;durP2;ratioP2;P2;SDS_P1;SDS_P2;PMS_P1;PMS_P2;Temp;Humidity;BMP_temperature;BMP_pressure;BME280_temperature;BME280_humidity;BME280_pressure;Samples;Min_cycle;Max_cycle;Signal;HPM_P1;HPM_P2
2023/01/06 00:01:52;;;;;;;5.68;3.08;;;4.20;99.90;;;;;;6136220;23;20194;-88
2023/01/06 00:04:19;;;;;;;4.78;1.58;;;4.30;99.90;;;;;;6134203;23;20201;-87
2023/01/06 00:06:46;;;;;;;2.22;1.30;;;4.20;99.90;;;;;;6134443;23;20497;-87
2023/01/06 00:09:15;;;;;;;4.68;1.05;;;4.10;99.90;;;;;;6110536;23;20279;-87
2023/01/06 00:11:47;;;;;;;1.85;1.45;;;4.10;99.90;;;;;;6134169;23;20247;-86
2023/01/06 00:14:14;;;;;;;1.35;1.10;;;4.10;99.90;;;;;;6108503;23;20682;-87
2023/01/06 00:16:42;;;;;;;3.65;1.48;;;4.00;99.90;;;;;;6135085;23;20188;-88
2023/01/06 00:19:10;;;;;;;2.63;1.10;;;4.00;99.90;;;;;;6132142;23;20236;-88
2023/01/06 00:21:43;;;;;;;4.25;1.25;;;4.00;99.90;;;;;;6133219;23;20170;-87
2023/01/06 00:24:11;;;;;;;2.38;1.30;;;3.90;99.90;;;;;;6134337;23;20193;-87
2023/01/06 00:26:38;;;;;;;2.67;1.45;;;3.90;99.90;;;;;;6137354;23;20188;-88
2023/01/06 00:29:09;;;;;;;3.40;1.60;;;3.90;99.90;;;;;;6139684;23;20204;-89
2023/01/06 00:31:37;;;;;;;2.38;1.67;;;3.80;99.90;;;;;;6141421;23;20181;-89
2023/01/06 00:34:06;;;;;;;1.58;1.48;;;3.80;99.90;;;;;;6139119;23;20188;-85
2023/01/06 00:36:34;;;;;;;4.03;2.08;;;4.00;99.90;;;;;;6134184;23;20212;-87
2023/01/06 00:39:03;;;;;;;3.10;2.08;;;3.80;99.90;;;;;;6133540;23;20185;-87
2023/01/06 00:44:16;;;;;;;2.33;2.08;;;3.60;99.90;;;;;;6133310;23;20208;-86
2023/01/06 00:46:47;;;;;;;2.90;2.17;;;3.60;99.90;;;;;;6108251;23;20216;-89
2023/01/06 00:49:14;;;;;;;2.80;1.90;;;3.60;99.90;;;;;;6134513;23;20201;-87
2023/01/06 00:51:42;;;;;;;4.25;1.95;;;3.60;99.90;;;;;;6132898;23;20181;-88
2023/01/06 00:54:12;;;;;;;4.45;1.23;;;3.50;99.90;;;;;;6131348;23;20509;-86
2023/01/06 00:56:45;;;;;;;4.55;1.58;;;3.40;99.90;;;;;;6131056;23;20173;-86
2023/01/06 00:59:18;;;;;;;1.60;1.48;;;3.40;99.90;;;;;;6153944;23;20200;-89
2023/01/06 01:01:52;;;;;;;2.15;1.25;;;3.40;99.90;;;;;;6138482;23;20176;-88
2023/01/06 01:04:28;;;;;;;2.78;1.30;;;3.30;99.90;;;;;;6145851;23;20374;-86
2023/01/06 01:06:57;;;;;;;1.98;1.20;;;3.30;99.90;;;;;;6138993;23;20199;-89
2023/01/06 01:09:28;;;;;;;2.38;1.20;;;3.40;99.90;;;;;;6132672;23;20216;-87
2023/01/06 01:12:11;;;;;;;4.55;1.30;;;3.30;99.90;;;;;;6132847;23;20181;-85
2023/01/06 01:14:40;;;;;;;2.58;1.65;;;3.20;99.90;;;;;;6133937;23;20212;-88
2023/01/06 01:17:10;;;;;;;5.97;1.90;;;3.20;99.90;;;;;;6133756;23;20184;-88
2023/01/06 01:19:39;;;;;;;2.63;1.40;;;3.30;99.90;;;;;;6136142;23;20204;-88
2023/01/06 01:22:09;;;;;;;3.03;1.40;;;3.20;99.90;;;;;;6132065;23;20187;-87
2023/01/06 01:24:36;;;;;;;2.97;1.92;;;3.10;99.90;;;;;;6134104;23;20187;-87
2023/01/06 01:27:04;;;;;;;5.82;1.50;;;3.10;99.90;;;;;;6132063;23;20328;-88
2023/01/06 01:29:32;;;;;;;2.95;1.35;;;3.30;99.90;;;;;;6132533;23;20266;-87
2023/01/06 01:32:03;;;;;;;2.35;1.15;;;3.10;99.90;;;;;;6134595;23;20188;-86
2023/01/06 01:34:30;;;;;;;4.97;1.65;;;3.10;99.90;;;;;;6133512;23;20188;-88
2023/01/06 01:36:57;;;;;;;0.98;0.98;;;3.10;99.90;;;;;;6132877;23;20191;-86
2023/01/06 01:39:28;;;;;;;3.70;1.70;;;3.10;99.90;;;;;;6146086;23;20289;-86
2023/01/06 01:41:57;;;;;;;1.77;1.23;;;3.10;99.90;;;;;;6138147;23;20183;-85
2023/01/06 01:44:52;;;;;;;8.27;2.88;;;3.00;99.90;;;;;;6133719;23;20216;-86
2023/01/06 01:47:49;;;;;;;4.90;2.17;;;3.00;99.90;;;;;;6134853;23;20239;-89
2023/01/06 01:50:26;;;;;;;7.75;4.32;;;3.10;99.90;;;;;;6136741;23;20168;-88
2023/01/06 01:53:02;;;;;;;10.40;3.90;;;3.20;99.90;;;;;;6137461;23;20202;-88
2023/01/06 01:55:59;;;;;;;3.90;2.20;;;3.30;99.90;;;;;;5123814;27;20527;-86
2023/01/06 01:58:37;;;;;;;2.95;1.88;;;3.30;99.90;;;;;;5125940;28;20237;-85
2023/01/06 02:01:06;;;;;;;5.75;2.85;;;3.10;99.90;;;;;;5119007;27;20204;-88
2023/01/06 02:03:35;;;;;;;4.45;1.83;;;3.10;99.90;;;;;;5127916;28;20250;-88
2023/01/06 02:06:08;;;;;;;5.15;3.10;;;3.20;99.90;;;;;;5118324;28;20330;-87
2023/01/06 02:08:44;;;;;;;2.60;1.70;;;3.20;99.90;;;;;;5119404;27;20218;-86
2023/01/06 02:11:11;;;;;;;4.22;2.00;;;3.10;99.90;;;;;;5118809;28;20207;-87
2023/01/06 02:13:41;;;;;;;3.95;2.45;;;3.10;99.90;;;;;;5121516;28;20232;-86
2023/01/06 02:16:44;;;;;;;4.10;3.10;;;3.10;99.90;;;;;;5119432;28;20228;-87
2023/01/06 02:19:35;;;;;;;4.28;2.22;;;3.00;99.90;;;;;;5078094;28;20277;-86
2023/01/06 02:22:31;;;;;;;3.05;1.88;;;2.90;99.90;;;;;;5118066;28;20200;-86
2023/01/06 02:25:31;;;;;;;2.70;2.25;;;3.00;99.90;;;;;;5119738;28;20187;-86
2023/01/06 02:28:25;;;;;;;5.75;2.10;;;3.20;99.90;;;;;;5113772;28;20265;-87
2023/01/06 02:31:32;;;;;;;2.80;2.50;;;3.10;99.90;;;;;;5109074;28;20218;-87
2023/01/06 02:34:40;;;;;;;5.32;2.63;;;3.00;99.90;;;;;;5117202;28;20214;-86
2023/01/06 02:37:28;;;;;;;8.73;3.38;;;3.00;99.90;;;;;;5121435;28;20193;-87
2023/01/06 02:40:14;;;;;;;2.50;2.10;;;3.00;99.90;;;;;;5115388;28;20210;-85
2023/01/06 02:42:41;;;;;;;4.50;2.60;;;3.00;99.90;;;;;;5104584;28;20211;-86
2023/01/06 02:45:45;;;;;;;3.95;2.10;;;3.10;99.90;;;;;;5130551;27;20211;-87
2023/01/06 02:48:16;;;;;;;2.20;2.00;;;3.10;99.90;;;;;;5112035;28;20205;-86
2023/01/06 02:50:53;;;;;;;3.92;2.53;;;3.00;99.90;;;;;;5113398;28;20288;-86
2023/01/06 02:53:51;;;;;;;3.20;2.40;;;3.00;99.90;;;;;;5117670;28;20190;-87
2023/01/06 02:56:24;;;;;;;6.53;3.33;;;3.00;99.90;;;;;;5115637;28;20233;-87
2023/01/06 02:59:03;;;;;;;7.40;2.30;;;3.00;99.90;;;;;;5128658;28;20198;-85
2023/01/06 03:01:40;;;;;;;3.30;3.00;;;3.00;99.90;;;;;;5124708;28;20246;-85
2023/01/06 03:04:14;;;;;;;4.72;2.45;;;3.00;99.90;;;;;;5113089;28;20239;-85
2023/01/06 03:06:46;;;;;;;4.88;2.60;;;2.90;99.90;;;;;;5114446;28;20198;-85
2023/01/06 03:09:18;;;;;;;2.53;2.10;;;2.90;99.90;;;;;;5126751;28;20263;-85
2023/01/06 03:11:49;;;;;;;2.85;2.20;;;3.00;99.90;;;;;;5117502;28;20223;-86
2023/01/06 03:14:32;;;;;;;4.47;3.03;;;2.90;99.90;;;;;;5105255;28;20252;-88
2023/01/06 03:17:00;;;;;;;7.35;2.85;;;3.00;99.90;;;;;;5103928;28;20268;-87
2023/01/06 03:19:30;;;;;;;7.28;3.35;;;2.90;99.90;;;;;;5107121;28;20238;-87
2023/01/06 03:22:00;;;;;;;4.82;3.15;;;3.10;99.90;;;;;;5105627;28;20252;-88
2023/01/06 03:24:28;;;;;;;9.10;4.35;;;3.00;99.90;;;;;;5100190;28;20226;-88
2023/01/06 03:26:59;;;;;;;11.05;5.20;;;3.10;99.90;;;;;;5112669;28;20212;-89
2023/01/06 03:29:28;;;;;;;7.45;4.60;;;3.30;99.90;;;;;;5089175;28;20250;-88
2023/01/06 03:32:32;;;;;;;12.88;4.65;;;3.30;99.90;;;;;;5108460;28;20238;-89
2023/01/06 03:35:15;;;;;;;7.97;5.25;;;3.50;99.90;;;;;;5112573;28;20231;-88
2023/01/06 03:38:18;;;;;;;9.15;4.72;;;3.60;99.90;;;;;;5107730;28;20202;-88
2023/01/06 03:43:10;;;;;;;5.40;4.05;;;3.70;99.90;;;;;;5094336;28;20675;-87
2023/01/06 03:44:17;;;;;;;5.95;3.80;;;3.90;99.90;;;;;;5098035;28;20199;-86
2023/01/06 03:46:53;;;;;;;7.32;4.30;;;4.00;99.90;;;;;;5090317;28;20233;-85
2023/01/06 03:49:31;;;;;;;5.13;3.95;;;4.00;99.90;;;;;;5110495;28;20200;-87
2023/01/06 03:52:23;;;;;;;3.58;3.28;;;4.10;99.90;;;;;;5103536;28;20692;-86
2023/01/06 03:55:04;;;;;;;4.45;3.50;;;4.30;99.90;;;;;;5107835;28;20223;-86
2023/01/06 03:57:38;;;;;;;6.90;4.18;;;4.40;99.90;;;;;;5089945;28;20217;-84
2023/01/06 04:00:20;;;;;;;5.88;2.95;;;4.50;99.90;;;;;;5107372;28;20370;-85
2023/01/06 04:02:49;;;;;;;8.85;4.85;;;4.50;99.90;;;;;;5116730;28;20682;-86
2023/01/06 04:05:23;;;;;;;5.55;3.70;;;4.50;99.90;;;;;;5118286;28;20197;-85
2023/01/06 04:07:52;;;;;;;5.85;3.53;;;4.50;99.90;;;;;;5091031;28;20642;-85
2023/01/06 04:10:20;;;;;;;4.13;3.78;;;4.50;99.90;;;;;;5101791;28;20235;-85
2023/01/06 04:12:48;;;;;;;3.33;3.03;;;4.60;99.90;;;;;;5113698;28;20211;-86
2023/01/06 04:15:18;;;;;;;6.15;3.35;;;4.70;99.90;;;;;;5114042;28;20255;-85
2023/01/06 04:17:46;;;;;;;4.80;3.92;;;4.80;99.90;;;;;;5104170;28;20226;-87
2023/01/06 04:20:29;;;;;;;7.47;3.40;;;4.80;99.90;;;;;;5116060;28;20209;-87
2023/01/06 04:22:57;;;;;;;3.83;3.28;;;4.80;99.90;;;;;;5101344;28;20208;-86
2023/01/06 04:25:24;;;;;;;4.60;2.53;;;4.90;99.90;;;;;;5089208;28;20229;-86
2023/01/06 04:27:52;;;;;;;5.13;2.83;;;5.00;99.90;;;;;;5111371;28;20397;-86
2023/01/06 04:30:20;;;;;;;3.72;2.33;;;5.10;99.90;;;;;;5109378;28;20200;-86
2023/01/06 04:32:47;;;;;;;3.92;2.83;;;5.20;99.90;;;;;;5107996;28;20202;-86
2023/01/06 04:35:14;;;;;;;8.38;4.07;;;5.10;99.90;;;;;;5115054;28;20225;-87
2023/01/06 04:37:41;;;;;;;4.97;2.92;;;5.10;99.90;;;;;;5105889;28;20243;-86
2023/01/06 04:40:08;;;;;;;2.83;2.58;;;5.20;99.90;;;;;;5113942;28;20559;-86
2023/01/06 04:45:22;;;;;;;5.88;3.35;;;5.30;99.90;;;;;;5100841;28;20343;-87
2023/01/06 04:47:49;;;;;;;9.60;3.20;;;5.30;99.90;;;;;;5095388;28;20208;-86
2023/01/06 04:50:16;;;;;;;3.05;2.78;;;5.40;99.90;;;;;;5097741;28;20198;-86
2023/01/06 04:52:43;;;;;;;6.55;3.90;;;5.40;99.90;;;;;;5111128;28;20258;-87
2023/01/06 04:55:10;;;;;;;6.93;3.17;;;5.20;99.90;;;;;;5102879;28;20226;-87
2023/01/06 04:57:40;;;;;;;7.60;4.32;;;4.80;99.90;;;;;;5104056;28;20213;-87
2023/01/06 05:00:11;;;;;;;4.85;3.42;;;5.00;99.90;;;;;;5091944;28;20198;-86
2023/01/06 05:02:38;;;;;;;4.90;3.67;;;5.20;99.90;;;;;;5093231;28;20205;-84
2023/01/06 05:05:07;;;;;;;4.45;2.70;;;5.40;99.90;;;;;;5102191;28;20213;-85
2023/01/06 05:07:35;;;;;;;4.93;3.30;;;5.50;99.90;;;;;;5121899;28;20204;-86
2023/01/06 05:10:07;;;;;;;4.47;3.35;;;5.10;99.90;;;;;;5106103;28;20744;-85
2023/01/06 05:12:34;;;;;;;5.72;4.20;;;5.10;99.90;;;;;;5095313;28;20217;-85
2023/01/06 05:15:05;;;;;;;5.15;3.28;;;5.20;99.90;;;;;;5100622;28;20717;-85
2023/01/06 05:17:32;;;;;;;6.95;4.68;;;5.20;99.90;;;;;;5126749;27;20292;-85
2023/01/06 05:20:01;;;;;;;8.70;3.13;;;5.40;99.90;;;;;;5106106;28;20228;-87
2023/01/06 05:22:32;;;;;;;4.25;3.85;;;5.30;99.90;;;;;;5134228;27;20224;-86
2023/01/06 05:24:59;;;;;;;6.85;3.95;;;5.40;99.90;;;;;;5100243;28;20205;-86
2023/01/06 05:27:26;;;;;;;4.82;3.33;;;5.10;99.90;;;;;;5093521;28;20209;-86
2023/01/06 05:29:53;;;;;;;3.08;2.78;;;5.10;99.90;;;;;;5102548;28;20250;-87
2023/01/06 05:32:21;;;;;;;9.50;3.10;;;5.10;99.90;;;;;;5112035;28;20281;-86
2023/01/06 05:34:50;;;;;;;5.13;3.72;;;5.10;99.90;;;;;;5115128;28;20256;-86
2023/01/06 05:37:18;;;;;;;4.47;3.00;;;5.30;99.90;;;;;;5114647;28;20196;-86
2023/01/06 05:39:45;;;;;;;6.78;5.38;;;5.10;99.90;;;;;;5105717;28;20306;-84
2023/01/06 05:42:16;;;;;;;10.45;5.88;;;4.80;99.90;;;;;;5109069;28;20317;-86
2023/01/06 05:44:43;;;;;;;8.98;6.22;;;4.90;99.90;;;;;;5105338;28;20251;-84
2023/01/06 05:47:10;;;;;;;15.32;7.03;;;5.00;99.90;;;;;;5099961;28;20243;-87
2023/01/06 05:49:38;;;;;;;8.75;3.95;;;4.70;99.90;;;;;;5106523;28;20217;-85
2023/01/06 05:52:08;;;;;;;5.95;3.28;;;4.70;99.90;;;;;;5108467;28;20204;-86
2023/01/06 05:54:36;;;;;;;12.52;5.93;;;4.50;99.90;;;;;;5104530;28;20233;-86
2023/01/06 05:57:06;;;;;;;11.82;5.40;;;4.50;99.90;;;;;;5109526;28;20204;-87
2023/01/06 05:59:33;;;;;;;4.15;3.70;;;4.70;99.90;;;;;;5123903;28;20280;-87
2023/01/06 06:02:00;;;;;;;4.82;3.75;;;4.40;99.90;;;;;;5114963;28;20209;-87
2023/01/06 06:04:27;;;;;;;3.83;3.50;;;4.20;99.90;;;;;;5113959;28;20197;-86
2023/01/06 06:06:54;;;;;;;5.10;3.50;;;4.30;99.90;;;;;;5108769;28;20472;-88
2023/01/06 06:09:24;;;;;;;2.85;2.60;;;4.10;99.90;;;;;;5114148;28;20227;-85
2023/01/06 06:11:58;;;;;;;4.60;3.08;;;4.10;99.90;;;;;;5106796;28;20262;-85
2023/01/06 06:14:26;;;;;;;7.22;3.63;;;4.20;99.90;;;;;;5099500;28;20215;-87
2023/01/06 06:16:55;;;;;;;6.57;2.83;;;4.50;99.90;;;;;;5127522;28;20280;-88
2023/01/06 06:19:23;;;;;;;6.22;2.63;;;4.50;99.90;;;;;;5105475;28;20276;-85
2023/01/06 06:21:51;;;;;;;7.57;2.78;;;4.40;99.90;;;;;;5114567;28;20210;-86
2023/01/06 06:24:18;;;;;;;5.57;3.22;;;4.30;99.90;;;;;;5085839;28;20208;-86
2023/01/06 06:26:45;;;;;;;3.72;2.70;;;4.20;99.90;;;;;;5115925;28;20269;-86
2023/01/06 06:29:12;;;;;;;3.65;2.60;;;4.20;99.90;;;;;;5104210;28;20232;-85
2023/01/06 06:31:39;;;;;;;7.88;5.00;;;4.10;99.90;;;;;;5111264;28;20210;-85
2023/01/06 06:34:09;;;;;;;7.35;3.17;;;4.20;99.90;;;;;;5105032;28;20202;-85
2023/01/06 06:36:36;;;;;;;3.95;3.13;;;4.30;99.90;;;;;;5098203;28;20230;-85
2023/01/06 06:39:04;;;;;;;10.38;5.65;;;4.40;99.90;;;;;;5082168;28;20218;-85
2023/01/06 06:41:31;;;;;;;4.53;3.85;;;4.50;99.90;;;;;;5114815;28;20220;-86
2023/01/06 06:43:58;;;;;;;7.70;4.13;;;4.40;99.90;;;;;;5108919;28;20197;-85
2023/01/06 06:46:28;;;;;;;3.15;2.83;;;4.20;99.90;;;;;;5108836;28;20280;-85
2023/01/06 06:48:57;;;;;;;6.63;3.42;;;4.10;99.90;;;;;;5099942;28;20217;-85
2023/01/06 06:51:24;;;;;;;4.55;3.45;;;4.20;99.90;;;;;;5103532;28;20453;-86
2023/01/06 06:53:51;;;;;;;4.45;3.40;;;4.30;99.90;;;;;;5080342;28;20535;-84
2023/01/06 06:56:19;;;;;;;4.20;3.78;;;4.20;99.90;;;;;;5071345;28;20229;-84
2023/01/06 06:58:47;;;;;;;7.53;4.47;;;4.30;99.90;;;;;;5018152;28;20246;-84
2023/01/06 07:01:17;;;;;;;9.02;4.72;;;4.20;99.90;;;;;;5029499;28;20215;-83
2023/01/06 07:03:44;;;;;;;7.40;3.90;;;4.20;99.90;;;;;;5033899;28;20201;-84
2023/01/06 07:06:23;;;;;;;4.10;3.70;;;4.10;99.90;;;;;;5095539;28;20268;-86
2023/01/06 07:08:54;;;;;;;3.55;3.08;;;4.20;99.90;;;;;;5030443;28;20270;-90
2023/01/06 07:11:22;;;;;;;9.57;4.00;;;4.10;99.90;;;;;;5050729;28;20206;-86
2023/01/06 07:13:50;;;;;;;5.10;4.70;;;4.10;99.90;;;;;;5095445;28;20426;-86
2023/01/06 07:16:21;;;;;;;5.68;3.63;;;4.00;99.90;;;;;;5095140;28;20234;-85
2023/01/06 07:18:48;;;;;;;4.93;4.38;;;3.90;99.90;;;;;;5127037;27;20208;-85
2023/01/06 07:21:16;;;;;;;7.82;4.75;;;3.90;99.90;;;;;;5094015;28;20204;-85
2023/01/06 07:23:42;;;;;;;7.72;4.60;;;4.10;99.90;;;;;;5087771;28;20215;-84
2023/01/06 07:26:10;;;;;;;6.70;4.85;;;4.20;99.90;;;;;;5030831;28;20208;-84
2023/01/06 07:28:37;;;;;;;7.25;5.00;;;4.30;99.90;;;;;;5011692;27;20213;-84
2023/01/06 07:31:04;;;;;;;5.20;4.20;;;4.50;99.90;;;;;;5090973;27;20204;-85
2023/01/06 07:33:31;;;;;;;4.63;3.63;;;4.50;99.90;;;;;;5019969;28;20208;-85
2023/01/06 07:35:59;;;;;;;3.78;3.08;;;4.30;99.90;;;;;;5019974;28;20425;-86
2023/01/06 07:38:27;;;;;;;4.63;3.25;;;4.30;99.90;;;;;;5024192;28;20201;-85
2023/01/06 07:40:59;;;;;;;5.00;2.35;;;4.50;99.90;;;;;;5023252;28;20203;-86
2023/01/06 07:43:26;;;;;;;4.22;3.85;;;4.30;99.90;;;;;;5014139;28;20235;-85
2023/01/06 07:45:57;;;;;;;3.53;3.03;;;4.20;99.90;;;;;;5024665;28;20228;-85
2023/01/06 07:48:25;;;;;;;4.20;3.80;;;4.10;99.90;;;;;;5030050;28;20208;-90
2023/01/06 07:50:52;;;;;;;7.03;3.88;;;4.20;99.90;;;;;;5035420;28;20610;-87
2023/01/06 07:53:20;;;;;;;4.95;4.45;;;4.20;99.90;;;;;;5022949;28;20208;-85
2023/01/06 07:55:56;;;;;;;6.43;4.35;;;4.30;99.90;;;;;;5024891;28;20253;-87
2023/01/06 07:58:26;;;;;;;5.80;4.30;;;4.30;99.90;;;;;;5029901;28;20517;-85
2023/01/06 08:00:54;;;;;;;6.18;5.32;;;4.20;99.90;;;;;;5024529;28;20191;-88
2023/01/06 08:03:21;;;;;;;8.75;5.10;;;4.10;99.90;;;;;;5093272;28;20222;-87
2023/01/06 08:05:50;;;;;;;8.43;5.40;;;4.00;99.90;;;;;;5017231;28;20662;-87
2023/01/06 08:08:17;;;;;;;8.38;6.65;;;4.10;99.90;;;;;;5135526;27;20256;-85
2023/01/06 08:10:46;;;;;;;8.88;6.32;;;4.20;99.90;;;;;;5032214;28;20200;-86
2023/01/06 08:13:14;;;;;;;5.25;4.50;;;4.20;99.90;;;;;;5026068;28;20246;-86
2023/01/06 08:15:41;;;;;;;5.22;3.53;;;4.10;99.90;;;;;;5026777;28;20253;-88
2023/01/06 08:18:09;;;;;;;5.65;4.05;;;4.10;99.90;;;;;;5034638;28;20220;-87
2023/01/06 08:20:38;;;;;;;6.60;4.45;;;4.10;99.90;;;;;;5031841;28;20193;-86
2023/01/06 08:23:05;;;;;;;4.05;3.20;;;4.10;99.90;;;;;;5025877;28;20237;-86
2023/01/06 08:25:32;;;;;;;4.57;4.00;;;4.10;99.90;;;;;;5033316;28;20180;-87
2023/01/06 08:28:01;;;;;;;7.97;3.90;;;4.20;99.90;;;;;;5022428;28;20495;-87
2023/01/06 08:30:29;;;;;;;5.88;3.20;;;4.20;99.90;;;;;;5092386;28;20523;-86
2023/01/06 08:35:31;;;;;;;18.70;7.97;;;4.30;99.90;;;;;;5129753;23;20230;-87
2023/01/06 08:37:59;;;;;;;11.27;6.32;;;4.30;99.90;;;;;;5071706;28;20187;-87
2023/01/06 08:43:08;;;;;;;19.27;10.18;;;4.30;99.90;;;;;;5348699;22;20239;-82
2023/01/06 08:45:39;;;;;;;6.63;4.20;;;4.30;99.90;;;;;;5040571;28;20250;-87
2023/01/06 08:48:06;;;;;;;17.48;6.50;;;4.30;99.90;;;;;;5043727;28;20211;-85
2023/01/06 08:50:39;;;;;;;21.48;8.10;;;4.50;99.90;;;;;;5038202;28;20504;-86
2023/01/06 08:53:07;;;;;;;11.43;4.13;;;4.60;99.90;;;;;;5042776;28;20803;-86
2023/01/06 08:55:41;;;;;;;11.52;5.05;;;4.80;99.90;;;;;;5041168;28;20227;-89
2023/01/06 08:58:11;;;;;;;8.82;4.80;;;4.70;99.90;;;;;;5052107;28;20271;-87
2023/01/06 09:00:40;;;;;;;14.38;7.80;;;4.50;99.90;;;;;;5041877;28;20286;-85
2023/01/06 09:03:08;;;;;;;7.75;4.15;;;4.50;99.90;;;;;;5036098;28;20236;-85
2023/01/06 09:05:38;;;;;;;9.98;4.55;;;4.60;99.90;;;;;;5039702;28;20219;-89
2023/01/06 09:08:05;;;;;;;16.58;7.20;;;4.70;99.90;;;;;;5034579;28;20207;-88
2023/01/06 09:10:36;;;;;;;20.33;9.15;;;4.70;99.90;;;;;;5044740;28;20247;-85
2023/01/06 09:13:04;;;;;;;18.80;7.95;;;4.60;99.90;;;;;;5043874;28;20275;-87
2023/01/06 09:15:31;;;;;;;11.57;6.95;;;4.60;99.90;;;;;;5043634;28;20421;-88
2023/01/06 09:17:58;;;;;;;36.33;15.35;;;4.60;99.90;;;;;;5039995;28;20207;-89
2023/01/06 09:20:28;;;;;;;22.80;10.05;;;4.70;99.90;;;;;;5036186;28;20243;-86
2023/01/06 09:23:03;;;;;;;11.90;5.80;;;4.80;99.90;;;;;;5034563;28;20384;-86
2023/01/06 09:25:31;;;;;;;17.17;7.22;;;4.80;99.90;;;;;;5044493;28;20193;-87
2023/01/06 09:27:58;;;;;;;7.82;4.78;;;4.90;99.90;;;;;;5046607;28;20231;-88
2023/01/06 09:30:33;;;;;;;6.60;3.55;;;4.90;99.90;;;;;;5042778;28;20208;-84
2023/01/06 09:33:00;;;;;;;16.60;7.18;;;5.10;99.90;;;;;;5043450;28;20200;-85
2023/01/06 09:35:35;;;;;;;23.00;8.98;;;5.10;99.90;;;;;;5045969;28;20224;-88
2023/01/06 09:38:03;;;;;;;19.50;7.85;;;5.20;99.90;;;;;;5043841;28;20193;-86
2023/01/06 09:40:42;;;;;;;20.40;7.28;;;5.10;99.90;;;;;;5045334;28;20260;-90
2023/01/06 09:43:41;;;;;;;6.78;4.05;;;5.20;99.90;;;;;;5044782;28;20199;-86
2023/01/06 09:46:14;;;;;;;19.00;9.57;;;5.10;99.90;;;;;;5046001;28;20187;-87
2023/01/06 09:49:12;;;;;;;17.25;7.10;;;5.10;99.90;;;;;;5045670;28;20663;-84
2023/01/06 09:51:44;;;;;;;16.52;7.63;;;5.20;99.90;;;;;;5042960;28;20217;-87
2023/01/06 09:54:19;;;;;;;16.65;7.97;;;5.30;99.90;;;;;;5040167;28;20446;-89
2023/01/06 09:57:00;;;;;;;17.52;7.80;;;5.50;99.90;;;;;;5041376;28;20270;-87
2023/01/06 09:59:33;;;;;;;20.88;7.00;;;5.70;99.90;;;;;;5041501;28;20199;-92
2023/01/06 10:02:04;;;;;;;17.95;6.50;;;5.80;99.90;;;;;;5042245;28;20208;-89
2023/01/06 10:04:31;;;;;;;7.00;4.20;;;6.10;99.90;;;;;;5045162;28;20427;-90
2023/01/06 10:07:16;;;;;;;8.00;5.20;;;5.80;99.90;;;;;;5043597;28;20235;-87
2023/01/06 10:09:47;;;;;;;22.60;9.25;;;5.60;99.90;;;;;;5059738;28;20207;-88
2023/01/06 10:12:40;;;;;;;18.92;8.98;;;5.60;99.90;;;;;;5045209;28;20208;-90
2023/01/06 10:15:29;;;;;;;13.70;8.93;;;5.70;99.90;;;;;;5037850;28;20227;-90
2023/01/06 10:17:56;;;;;;;6.55;4.07;;;5.80;99.90;;;;;;5039309;28;20220;-87
2023/01/06 10:20:45;;;;;;;19.40;7.95;;;5.90;99.90;;;;;;5040710;28;20212;-85
2023/01/06 10:23:28;;;;;;;15.55;8.98;;;5.90;99.90;;;;;;5043344;28;20215;-86
2023/01/06 10:26:11;;;;;;;25.30;11.27;;;6.00;99.90;;;;;;5051953;28;20223;-88
2023/01/06 10:28:41;;;;;;;21.83;10.52;;;6.00;99.90;;;;;;5047933;28;20219;-84
2023/01/06 10:31:18;;;;;;;31.20;14.32;;;6.10;99.90;;;;;;5047503;28;20479;-87
2023/01/06 10:33:49;;;;;;;8.73;5.82;;;6.20;99.90;;;;;;5027889;28;20246;-87
2023/01/06 10:36:25;;;;;;;8.15;4.90;;;6.40;99.90;;;;;;5040561;28;20276;-85
2023/01/06 10:38:55;;;;;;;8.70;4.35;;;6.40;99.90;;;;;;5047658;28;20273;-88
2023/01/06 10:41:45;;;;;;;18.48;8.10;;;6.30;99.90;;;;;;5033380;28;20894;-89
2023/01/06 10:44:13;;;;;;;5.25;4.13;;;6.30;99.90;;;;;;5058773;28;20237;-87
2023/01/06 10:46:44;;;;;;;12.93;7.28;;;6.30;99.90;;;;;;5045405;28;20205;-91
2023/01/06 10:49:17;;;;;;;7.82;5.15;;;6.50;99.90;;;;;;5049241;28;20195;-86
2023/01/06 10:52:01;;;;;;;15.13;7.70;;;6.50;99.90;;;;;;5054367;28;20233;-87
2023/01/06 10:57:10;;;;;;;9.65;4.78;;;6.70;99.90;;;;;;4998837;28;20468;-88
2023/01/06 11:00:16;;;;;;;9.70;5.35;;;6.70;99.90;;;;;;5021869;28;20282;-87
2023/01/06 11:02:46;;;;;;;15.43;6.78;;;6.80;99.90;;;;;;5003217;28;20237;-89
2023/01/06 11:05:25;;;;;;;12.32;4.95;;;6.70;99.90;;;;;;5012429;28;20328;-83
2023/01/06 11:07:55;;;;;;;15.60;6.70;;;6.80;99.90;;;;;;5004494;28;20206;-89
2023/01/06 11:10:49;;;;;;;7.22;5.38;;;6.80;99.90;;;;;;5013796;28;20217;-87
2023/01/06 11:13:27;;;;;;;19.33;9.23;;;6.90;99.90;;;;;;5013901;28;20214;-84
2023/01/06 11:15:59;;;;;;;13.02;6.50;;;7.00;99.90;;;;;;5002337;28;20253;-85
2023/01/06 11:18:34;;;;;;;11.18;5.80;;;7.20;99.90;;;;;;5002434;28;20241;-87
2023/01/06 11:21:17;;;;;;;14.15;5.95;;;7.10;99.90;;;;;;4995064;28;20212;-88
2023/01/06 11:23:46;;;;;;;12.32;6.97;;;7.10;99.90;;;;;;5003464;28;20410;-87
2023/01/06 11:26:22;;;;;;;7.13;4.50;;;7.30;99.90;;;;;;5002929;28;20329;-85
2023/01/06 11:28:54;;;;;;;8.57;4.40;;;7.50;99.90;;;;;;5005834;28;20186;-86
2023/01/06 11:31:26;;;;;;;5.43;3.95;;;7.50;99.90;;;;;;5011202;28;20186;-85
2023/01/06 11:34:00;;;;;;;9.88;5.70;;;7.50;99.90;;;;;;5003871;28;20211;-86
2023/01/06 11:36:44;;;;;;;10.80;5.43;;;7.60;99.90;;;;;;5018066;28;20242;-86
2023/01/06 11:39:20;;;;;;;8.13;5.22;;;7.50;99.90;;;;;;4985443;28;20690;-83
2023/01/06 11:41:50;;;;;;;6.55;4.60;;;7.70;99.90;;;;;;5004375;28;20424;-81
2023/01/06 11:44:34;;;;;;;9.43;4.45;;;7.60;99.90;;;;;;5017045;28;20381;-84
2023/01/06 11:47:15;;;;;;;4.65;4.25;;;7.50;99.90;;;;;;5017851;28;20282;-90
2023/01/06 11:49:51;;;;;;;8.38;4.50;;;7.40;99.90;;;;;;5001472;28;20210;-89
2023/01/06 11:52:21;;;;;;;8.52;6.45;;;7.30;99.90;;;;;;5002454;28;20216;-88
2023/01/06 11:55:18;;;;;;;8.80;5.28;;;7.30;99.90;;;;;;5015940;28;20236;-83
2023/01/06 11:58:10;;;;;;;5.80;5.00;;;7.40;99.90;;;;;;5000983;28;20293;-81
2023/01/06 12:00:58;;;;;;;9.77;5.00;;;7.40;99.90;;;;;;5015964;28;20214;-84
2023/01/06 12:03:34;;;;;;;11.30;6.10;;;7.50;99.90;;;;;;5002039;28;20214;-85
2023/01/06 12:06:23;;;;;;;7.00;4.60;;;7.60;99.90;;;;;;5017283;28;20212;-85
2023/01/06 12:09:03;;;;;;;11.27;6.03;;;7.60;99.90;;;;;;5015677;28;20285;-86
2023/01/06 12:11:44;;;;;;;12.95;7.20;;;7.70;99.90;;;;;;5001611;28;20230;-86
2023/01/06 12:14:34;;;;;;;9.90;6.45;;;7.50;99.90;;;;;;5013787;28;20253;-82
2023/01/06 12:17:26;;;;;;;13.82;6.50;;;7.50;99.90;;;;;;4998866;28;20229;-82
2023/01/06 12:20:14;;;;;;;16.02;8.15;;;7.60;99.90;;;;;;4996133;28;20500;-88
2023/01/06 12:23:22;;;;;;;12.10;6.88;;;7.70;99.90;;;;;;4998737;28;20224;-82
2023/01/06 12:25:55;;;;;;;11.13;6.00;;;7.50;99.90;;;;;;5017718;28;20204;-86
2023/01/06 12:28:32;;;;;;;12.10;7.28;;;7.10;99.90;;;;;;5006663;28;20213;-84
2023/01/06 12:31:48;;;;;;;9.65;6.63;;;7.00;99.90;;;;;;5015903;28;20202;-85
2023/01/06 12:34:33;;;;;;;11.00;8.20;;;6.90;99.90;;;;;;4982143;28;20214;-85
2023/01/06 12:37:09;;;;;;;16.92;9.63;;;6.80;99.90;;;;;;4993707;28;20515;-87
2023/01/06 12:39:45;;;;;;;11.93;7.90;;;6.90;99.90;;;;;;5024908;28;20435;-84
2023/01/06 12:42:25;;;;;;;15.00;8.38;;;7.00;99.90;;;;;;5016945;28;20201;-84
2023/01/06 12:45:16;;;;;;;12.27;7.35;;;7.10;99.90;;;;;;4998044;28;20485;-87
2023/01/06 12:47:52;;;;;;;12.30;8.10;;;7.00;99.90;;;;;;5001213;28;20236;-87
2023/01/06 12:50:23;;;;;;;10.25;7.88;;;7.10;99.90;;;;;;4996302;28;20209;-85
2023/01/06 12:52:59;;;;;;;12.93;8.13;;;7.20;99.90;;;;;;4999546;28;20194;-85
2023/01/06 12:55:45;;;;;;;15.05;8.60;;;7.30;99.90;;;;;;5015401;28;20489;-88
2023/01/06 12:58:15;;;;;;;12.63;8.07;;;7.10;99.90;;;;;;5000799;28;20241;-84
2023/01/06 13:00:53;;;;;;;10.75;7.65;;;7.10;99.90;;;;;;5008135;28;20268;-87
2023/01/06 13:03:45;;;;;;;10.45;7.60;;;7.10;99.90;;;;;;5006382;28;20201;-89
2023/01/06 13:06:34;;;;;;;9.90;7.63;;;7.20;99.90;;;;;;5023213;28;20203;-84
2023/01/06 13:09:29;;;;;;;9.20;7.97;;;7.30;99.90;;;;;;5006332;28;20217;-85
2023/01/06 13:12:22;;;;;;;10.70;7.72;;;7.30;99.90;;;;;;5002907;28;20210;-84
2023/01/06 13:15:12;;;;;;;12.65;8.38;;;7.20;99.90;;;;;;5019108;28;20205;-86
2023/01/06 13:17:48;;;;;;;11.20;8.45;;;7.20;99.90;;;;;;5019096;28;20229;-89
2023/01/06 13:20:28;;;;;;;14.20;8.05;;;7.10;99.90;;;;;;5010230;28;20232;-82
2023/01/06 13:22:55;;;;;;;18.58;9.60;;;7.10;99.90;;;;;;4998950;28;20440;-86
2023/01/06 13:25:41;;;;;;;14.35;8.57;;;7.10;99.90;;;;;;5015830;28;20220;-85
2023/01/06 13:28:29;;;;;;;13.45;9.07;;;7.20;99.90;;;;;;5015276;28;20213;-88
2023/01/06 13:30:56;;;;;;;13.10;10.60;;;7.30;99.90;;;;;;4995817;28;20410;-81
2023/01/06 13:33:44;;;;;;;13.00;9.50;;;7.20;99.90;;;;;;5014464;28;20213;-86
2023/01/06 13:36:26;;;;;;;15.68;9.25;;;7.20;99.90;;;;;;5008068;28;20218;-85
2023/01/06 13:39:08;;;;;;;15.15;9.65;;;7.20;99.90;;;;;;5008194;28;20206;-84
2023/01/06 13:41:38;;;;;;;18.10;10.00;;;7.20;99.90;;;;;;5007438;28;20391;-84
2023/01/06 13:44:16;;;;;;;18.05;9.90;;;7.30;99.90;;;;;;4996593;28;20202;-87